createdAt,value
2023-03-31T00:03:22.960Z,4.50
2023-03-31T00:08:30.937Z,5.20
2023-03-31T00:13:36.700Z,4.80
2023-03-31T00:18:47.895Z,4.80
2023-03-31T00:23:55.075Z,4.40
2023-03-31T00:28:59.640Z,4.30
2023-03-31T00:34:03.941Z,4.20
2023-03-31T00:39:09.848Z,4.30
2023-03-31T00:44:25.084Z,4.30
2023-03-31T00:49:42.012Z,4.50
2023-03-31T00:54:49.029Z,4.10
2023-03-31T00:59:59.416Z,3.60
2023-03-31T01:05:03.849Z,3.80
2023-03-31T01:10:09.262Z,4.20
2023-03-31T01:15:14.184Z,4.00
2023-03-31T01:20:46.250Z,3.90
2023-03-31T01:26:28.349Z,3.90
2023-03-31T01:36:48.796Z,3.80
2023-03-31T01:42:07.980Z,3.80
2023-03-31T01:47:18.652Z,3.70
2023-03-31T01:52:45.713Z,3.50
2023-03-31T01:57:58.084Z,3.50
2023-03-31T02:03:38.445Z,3.80
2023-03-31T02:08:48.794Z,3.70
2023-03-31T02:13:56.008Z,3.50
2023-03-31T02:19:04.042Z,3.60
2023-03-31T02:24:12.226Z,3.30
2023-03-31T02:29:16.573Z,3.50
2023-03-31T02:34:21.522Z,3.10
2023-03-31T02:39:35.561Z,3.10
2023-03-31T02:44:40.280Z,3.30
2023-03-31T02:49:49.573Z,3.10
2023-03-31T02:55:21.563Z,2.40
2023-03-31T03:00:47.000Z,2.90
2023-03-31T03:06:05.135Z,3.20
2023-03-31T03:11:46.840Z,2.50
2023-03-31T03:17:01.922Z,3.00
2023-03-31T03:22:08.041Z,2.80
2023-03-31T03:27:13.266Z,2.80
2023-03-31T03:32:17.917Z,2.70
2023-03-31T03:37:22.036Z,2.40
2023-03-31T03:42:26.286Z,2.70
2023-03-31T03:47:30.703Z,2.90
2023-03-31T03:52:34.746Z,2.40
2023-03-31T03:57:38.685Z,2.40
2023-03-31T04:02:42.648Z,2.20
2023-03-31T04:07:46.859Z,2.90
2023-03-31T04:12:51.087Z,2.50
2023-03-31T04:17:55.464Z,2.40
2023-03-31T04:22:59.674Z,2.50
2023-03-31T04:28:03.787Z,2.30
2023-03-31T04:33:08.156Z,2.10
2023-03-31T04:38:12.273Z,2.00
2023-03-31T04:43:17.710Z,2.30
2023-03-31T04:48:21.862Z,2.20
2023-03-31T04:53:26.714Z,2.00
2023-03-31T04:58:30.844Z,2.10
2023-03-31T05:03:35.195Z,1.90
2023-03-31T05:08:39.341Z,2.00
2023-03-31T05:13:43.470Z,2.30
2023-03-31T05:18:48.104Z,2.20
2023-03-31T05:23:51.946Z,1.80
2023-03-31T05:28:56.313Z,2.10
2023-03-31T05:34:00.320Z,1.90
2023-03-31T05:39:06.085Z,2.00
2023-03-31T05:44:10.125Z,2.40
2023-03-31T05:49:16.726Z,2.00
2023-03-31T05:54:21.155Z,2.20
2023-03-31T05:59:26.010Z,2.20
2023-03-31T06:04:29.971Z,2.10
2023-03-31T06:09:33.952Z,1.90
2023-03-31T06:14:38.195Z,2.00
2023-03-31T06:19:42.141Z,2.30
2023-03-31T06:24:46.170Z,2.40
2023-03-31T06:29:50.808Z,2.90
2023-03-31T06:34:54.846Z,3.20
2023-03-31T06:39:58.873Z,3.00
2023-03-31T06:45:02.812Z,3.20
2023-03-31T06:50:08.710Z,2.90
2023-03-31T06:55:13.847Z,3.40
2023-03-31T07:00:20.121Z,2.70
2023-03-31T07:05:29.664Z,3.20
2023-03-31T07:10:34.183Z,3.20
2023-03-31T07:15:38.681Z,5.10
2023-03-31T07:20:43.954Z,2.40
2023-03-31T07:25:48.782Z,3.70
2023-03-31T07:30:52.923Z,2.80
2023-03-31T07:36:08.334Z,2.70
2023-03-31T07:41:18.304Z,3.20
2023-03-31T07:46:27.988Z,3.30
2023-03-31T07:51:32.185Z,3.10
2023-03-31T07:56:36.732Z,3.00
2023-03-31T08:01:41.193Z,2.70
2023-03-31T08:06:45.303Z,6.60
2023-03-31T08:11:49.642Z,33.30
2023-03-31T08:16:55.823Z,35.70
2023-03-31T08:22:00.202Z,29.70
2023-03-31T08:27:04.617Z,27.80
2023-03-31T08:32:08.790Z,24.80
2023-03-31T08:37:12.764Z,24.40
2023-03-31T08:42:25.945Z,23.40
2023-03-31T08:47:32.779Z,22.50
2023-03-31T08:52:42.474Z,21.30
2023-03-31T08:58:28.053Z,20.70
2023-03-31T09:03:48.745Z,20.40
2023-03-31T09:08:57.569Z,19.90
2023-03-31T09:14:04.396Z,19.10
2023-03-31T09:19:40.363Z,21.90
2023-03-31T09:24:52.341Z,17.40
2023-03-31T09:30:11.066Z,16.80
2023-03-31T09:35:19.329Z,16.70
2023-03-31T09:40:26.273Z,16.00
2023-03-31T09:45:32.055Z,14.20
2023-03-31T09:50:52.303Z,15.40
2023-03-31T09:56:02.120Z,15.40
2023-03-31T10:01:11.966Z,13.60
2023-03-31T10:06:17.041Z,14.50
2023-03-31T10:11:21.064Z,14.50
2023-03-31T10:16:33.437Z,13.30
2023-03-31T10:21:39.289Z,11.90
2023-03-31T10:26:44.005Z,13.60
2023-03-31T10:31:48.175Z,12.70
2023-03-31T10:36:53.103Z,12.20
2023-03-31T10:41:57.130Z,12.10
2023-03-31T10:47:20.307Z,11.30
2023-03-31T10:52:26.277Z,11.50
2023-03-31T10:57:47.600Z,11.90
2023-03-31T11:03:10.414Z,11.00
2023-03-31T11:08:39.259Z,11.20
2023-03-31T11:14:09.700Z,10.80
2023-03-31T11:19:51.913Z,11.00
2023-03-31T11:24:58.911Z,11.20
2023-03-31T11:30:08.770Z,10.70
2023-03-31T11:35:21.697Z,9.80
2023-03-31T11:40:56.942Z,10.00
2023-03-31T11:46:10.438Z,9.80
2023-03-31T11:51:32.013Z,9.80
2023-03-31T11:56:38.486Z,9.60
2023-03-31T12:01:50.845Z,9.80
2023-03-31T12:07:02.372Z,9.40
2023-03-31T12:12:14.670Z,9.50
2023-03-31T12:17:23.539Z,9.20
2023-03-31T12:22:35.121Z,8.00
2023-03-31T12:27:51.839Z,8.50
2023-03-31T12:33:17.682Z,8.80
2023-03-31T12:38:33.675Z,8.20
2023-03-31T12:43:59.324Z,7.60
2023-03-31T12:49:27.704Z,7.70
2023-03-31T12:54:40.530Z,8.20
2023-03-31T12:59:46.090Z,7.60
2023-03-31T13:04:51.245Z,7.00
2023-03-31T13:09:59.896Z,7.60
2023-03-31T13:15:05.975Z,7.40
2023-03-31T13:20:30.568Z,6.70
2023-03-31T13:25:59.077Z,6.80
2023-03-31T13:31:09.849Z,6.80
2023-03-31T13:36:16.650Z,6.10
2023-03-31T13:41:41.047Z,6.10
2023-03-31T13:47:13.127Z,6.00
2023-03-31T13:52:29.013Z,5.70
2023-03-31T13:57:58.512Z,4.80
2023-03-31T14:03:13.169Z,6.00
2023-03-31T14:08:40.256Z,5.50
2023-03-31T14:13:44.392Z,5.80
2023-03-31T14:18:57.030Z,5.70
2023-03-31T14:24:40.054Z,5.00
2023-03-31T14:30:13.277Z,4.60
2023-03-31T14:35:39.052Z,5.10
2023-03-31T14:40:50.174Z,4.70
2023-03-31T14:46:02.349Z,4.50
2023-03-31T14:51:10.532Z,4.30
2023-03-31T14:56:27.252Z,11.00
2023-03-31T15:01:40.203Z,30.30
2023-03-31T15:06:49.256Z,39.30
2023-03-31T15:12:03.175Z,32.40
2023-03-31T15:17:07.109Z,31.30
2023-03-31T15:22:21.524Z,30.30
2023-03-31T15:27:36.956Z,29.00
2023-03-31T15:32:42.499Z,26.70
2023-03-31T15:37:47.198Z,22.90
2023-03-31T15:43:06.069Z,22.10
2023-03-31T15:48:21.668Z,23.20
2023-03-31T15:53:32.301Z,20.20
2023-03-31T15:58:59.305Z,20.70
2023-03-31T16:04:08.901Z,20.20
2023-03-31T16:09:36.148Z,19.70
2023-03-31T16:14:51.704Z,18.30
2023-03-31T16:20:17.104Z,18.50
2023-03-31T16:25:25.067Z,18.00
2023-03-31T16:30:40.974Z,16.60
2023-03-31T16:35:51.624Z,16.20
2023-03-31T16:40:59.362Z,15.50
2023-03-31T16:46:04.527Z,15.10
2023-03-31T16:51:08.650Z,15.20
2023-03-31T16:56:14.129Z,14.30
2023-03-31T17:01:18.229Z,14.60
2023-03-31T17:06:22.996Z,12.90
2023-03-31T17:11:27.843Z,13.00
2023-03-31T17:16:44.948Z,13.40
2023-03-31T17:21:53.725Z,12.40
2023-03-31T17:26:58.468Z,12.90
2023-03-31T17:32:04.227Z,13.30
2023-03-31T17:37:09.421Z,12.30
2023-03-31T17:42:15.505Z,11.10
2023-03-31T17:47:21.359Z,10.70
2023-03-31T17:52:26.621Z,10.70
2023-03-31T17:57:32.350Z,10.60
2023-03-31T18:02:42.492Z,9.50
2023-03-31T18:07:50.236Z,9.50
2023-03-31T18:12:55.907Z,8.60
2023-03-31T18:18:00.729Z,9.70
2023-03-31T18:23:06.166Z,8.50
2023-03-31T18:28:13.510Z,9.50
2023-03-31T18:33:18.189Z,8.60
2023-03-31T18:38:25.799Z,8.80
2023-03-31T18:43:33.147Z,8.90
2023-03-31T18:48:40.209Z,8.40
2023-03-31T18:53:48.379Z,8.90
2023-03-31T18:58:56.460Z,8.00
2023-03-31T19:04:01.245Z,8.80
2023-03-31T19:09:08.074Z,8.20
2023-03-31T19:14:14.116Z,7.40
2023-03-31T19:19:20.087Z,7.80
2023-03-31T19:24:25.832Z,7.40
2023-03-31T19:29:32.881Z,6.40
2023-03-31T19:34:44.593Z,6.70
2023-03-31T19:39:54.952Z,7.00
2023-03-31T19:45:02.750Z,5.50
2023-03-31T19:50:09.547Z,6.20
2023-03-31T19:55:18.506Z,5.70
2023-03-31T20:00:24.919Z,6.30
2023-03-31T20:05:33.167Z,5.60
2023-03-31T20:10:39.274Z,6.00
2023-03-31T20:15:45.186Z,5.50
2023-03-31T20:20:50.657Z,5.90
2023-03-31T20:25:56.296Z,5.60
2023-03-31T20:31:29.012Z,5.50
2023-03-31T20:36:34.077Z,5.80
2023-03-31T20:41:39.431Z,5.70
2023-03-31T20:46:45.352Z,5.80
2023-03-31T20:51:50.047Z,5.40
2023-03-31T20:56:54.621Z,6.10
2023-03-31T21:02:00.554Z,5.20
2023-03-31T21:07:04.456Z,5.00
2023-03-31T21:12:08.539Z,5.00
2023-03-31T21:17:12.462Z,5.10
2023-03-31T21:22:16.495Z,5.70
2023-03-31T21:27:20.855Z,5.30
2023-03-31T21:32:25.243Z,5.70
2023-03-31T21:37:30.265Z,5.20
2023-03-31T21:42:35.161Z,5.10
2023-03-31T21:47:40.174Z,4.60
2023-03-31T21:52:44.078Z,5.90
2023-03-31T21:57:48.010Z,5.20
2023-03-31T22:02:53.825Z,5.40
2023-03-31T22:08:02.534Z,5.10
2023-03-31T22:13:06.767Z,4.50
2023-03-31T22:18:12.014Z,4.70
2023-03-31T22:23:17.180Z,4.70
2023-03-31T22:28:21.104Z,4.50
2023-03-31T22:33:25.340Z,5.10
2023-03-31T22:38:29.374Z,4.40
2023-03-31T22:43:34.149Z,4.60
2023-03-31T22:48:39.468Z,4.10
2023-03-31T22:53:43.407Z,4.70
2023-03-31T22:58:48.164Z,4.70
2023-03-31T23:03:52.149Z,4.00
2023-03-31T23:08:56.739Z,4.00
2023-03-31T23:14:00.881Z,4.00
2023-03-31T23:19:04.862Z,3.60
2023-03-31T23:24:08.949Z,3.60
2023-03-31T23:29:13.515Z,3.90
2023-03-31T23:34:17.644Z,3.00
2023-03-31T23:39:21.973Z,3.10
2023-03-31T23:44:26.532Z,3.10
2023-03-31T23:49:31.032Z,3.60
2023-03-31T23:54:35.191Z,3.30
2023-03-31T23:59:39.412Z,3.20
